Time;durP1;ratioP1;P1;durP2;ratioP2;P2;SDS_P1;SDS_P2;PMS_P1;PMS_P2;Temp;Humidity;BMP_temperature;BMP_pressure;BME280_temperature;BME280_humidity;BME280_pressure;Samples;Min_cycle;Max_cycle;Signal;HPM_P1;HPM_P2
2023/07/23 00:00:57;;;;;;;32.30;30.30;;;21.40;99.90;;;;;;5033266;28;20040;-75
2023/07/23 00:03:23;;;;;;;19.80;18.52;;;21.40;99.90;;;;;;5034728;28;20029;-75
2023/07/23 00:05:50;;;;;;;20.90;19.65;;;21.40;99.90;;;;;;5034784;28;20030;-74
2023/07/23 00:08:16;;;;;;;21.92;20.52;;;21.50;99.90;;;;;;5035078;28;20033;-75
2023/07/23 00:10:42;;;;;;;29.35;27.65;;;21.60;99.90;;;;;;5033509;28;20029;-76
2023/07/23 00:13:08;;;;;;;31.20;29.42;;;21.60;99.90;;;;;;5034069;28;20398;-76
2023/07/23 00:15:34;;;;;;;22.02;20.67;;;21.50;99.90;;;;;;5032951;28;20513;-75
2023/07/23 00:18:00;;;;;;;36.63;34.42;;;21.40;99.90;;;;;;5034583;28;20029;-75
2023/07/23 00:20:26;;;;;;;21.77;20.48;;;21.50;99.90;;;;;;5035154;28;20041;-75
2023/07/23 00:22:52;;;;;;;20.85;19.50;;;21.50;99.90;;;;;;5034839;28;20033;-75
2023/07/23 00:25:19;;;;;;;20.73;19.38;;;21.50;99.90;;;;;;5034377;28;20029;-75
2023/07/23 00:27:45;;;;;;;27.02;25.45;;;21.40;99.90;;;;;;5033417;28;20422;-75
2023/07/23 00:30:11;;;;;;;31.60;29.60;;;21.50;99.90;;;;;;5033882;28;20032;-75
2023/07/23 00:32:37;;;;;;;34.95;32.97;;;21.40;99.90;;;;;;5033002;28;20462;-75
2023/07/23 00:35:04;;;;;;;32.00;30.17;;;21.50;99.90;;;;;;5033463;28;20052;-74
2023/07/23 00:37:31;;;;;;;24.77;23.23;;;21.40;99.90;;;;;;5034026;28;20479;-75
2023/07/23 00:39:58;;;;;;;20.73;19.35;;;21.30;99.90;;;;;;5034371;28;20045;-75
2023/07/23 00:42:24;;;;;;;24.85;23.20;;;21.30;99.90;;;;;;5034240;28;20036;-75
2023/07/23 00:44:50;;;;;;;32.10;30.10;;;21.30;99.90;;;;;;5034269;28;20029;-75
2023/07/23 00:47:16;;;;;;;29.52;27.65;;;21.30;99.90;;;;;;5033344;28;20068;-76
2023/07/23 00:49:43;;;;;;;22.35;21.15;;;21.30;99.90;;;;;;5034095;28;20049;-74
2023/07/23 00:52:09;;;;;;;19.75;18.45;;;21.30;99.90;;;;;;5032674;28;20037;-75
2023/07/23 00:54:35;;;;;;;20.05;18.50;;;21.40;99.90;;;;;;5031618;28;20026;-75
2023/07/23 00:57:02;;;;;;;18.95;17.73;;;21.40;99.90;;;;;;5033994;28;20486;-75
2023/07/23 00:59:30;;;;;;;22.13;20.52;;;21.30;99.90;;;;;;5033998;28;20060;-75
2023/07/23 01:01:57;;;;;;;26.45;24.75;;;21.30;99.90;;;;;;5031380;28;20406;-75
2023/07/23 01:04:23;;;;;;;26.95;25.33;;;21.40;99.90;;;;;;5033858;28;20036;-75
2023/07/23 01:06:49;;;;;;;43.15;40.80;;;21.40;99.90;;;;;;5032374;28;20041;-75
2023/07/23 01:09:15;;;;;;;30.88;29.15;;;21.40;99.90;;;;;;5032743;28;20025;-75
2023/07/23 01:11:41;;;;;;;17.80;16.73;;;21.40;99.90;;;;;;5032687;28;20029;-75
2023/07/23 01:14:08;;;;;;;20.60;19.20;;;21.40;99.90;;;;;;5032667;28;20029;-75
2023/07/23 01:16:34;;;;;;;21.73;19.98;;;21.40;99.90;;;;;;5032522;28;20040;-75
2023/07/23 01:19:01;;;;;;;23.58;22.13;;;21.30;99.90;;;;;;5032574;28;20036;-75
2023/07/23 01:21:28;;;;;;;26.75;24.95;;;21.20;99.90;;;;;;5033833;28;20037;-75
2023/07/23 01:23:54;;;;;;;29.38;27.60;;;21.20;99.90;;;;;;5033900;28;20040;-75
2023/07/23 01:26:20;;;;;;;30.70;29.02;;;21.20;99.90;;;;;;5033408;28;20509;-75
2023/07/23 01:28:47;;;;;;;30.00;28.25;;;21.20;99.90;;;;;;5033303;28;20048;-75
2023/07/23 01:31:13;;;;;;;40.88;38.60;;;21.30;99.90;;;;;;5032428;28;20041;-75
2023/07/23 01:33:42;;;;;;;33.10;31.25;;;21.30;99.90;;;;;;5033393;28;20038;-75
2023/07/23 01:36:08;;;;;;;25.17;23.70;;;21.20;99.90;;;;;;5031785;28;20029;-75
2023/07/23 01:38:34;;;;;;;26.27;24.63;;;21.10;99.90;;;;;;5032175;28;20382;-75
2023/07/23 01:41:01;;;;;;;24.98;23.27;;;21.10;99.90;;;;;;5031771;28;20029;-75
2023/07/23 01:43:27;;;;;;;27.77;26.08;;;21.10;99.90;;;;;;5032014;28;20474;-75
2023/07/23 01:45:54;;;;;;;22.73;21.30;;;21.10;99.90;;;;;;5032181;28;20034;-75
2023/07/23 01:48:21;;;;;;;22.10;20.50;;;21.10;99.90;;;;;;5033047;28;20037;-75
2023/07/23 01:50:47;;;;;;;22.20;20.58;;;21.20;99.90;;;;;;5032741;28;20490;-75
2023/07/23 01:53:13;;;;;;;25.67;23.90;;;21.10;99.90;;;;;;5032933;28;20037;-75
2023/07/23 01:55:39;;;;;;;22.45;21.05;;;21.10;99.90;;;;;;5032820;28;20379;-74
2023/07/23 01:58:05;;;;;;;25.02;23.52;;;21.10;99.90;;;;;;5032405;28;20455;-75
2023/07/23 02:00:31;;;;;;;22.77;21.38;;;21.10;99.90;;;;;;5027325;28;20402;-75
2023/07/23 02:02:57;;;;;;;21.63;20.23;;;21.10;99.90;;;;;;5026286;28;20037;-75
2023/07/23 02:05:24;;;;;;;21.73;20.42;;;21.10;99.90;;;;;;5030233;28;20042;-75
2023/07/23 02:07:50;;;;;;;20.77;19.33;;;21.00;99.90;;;;;;5031648;28;20060;-75
2023/07/23 02:10:18;;;;;;;21.42;19.92;;;21.00;99.90;;;;;;5030073;28;20379;-75
2023/07/23 02:12:44;;;;;;;20.60;19.25;;;21.00;99.90;;;;;;5030872;28;20057;-74
2023/07/23 02:15:11;;;;;;;20.88;19.58;;;21.00;99.90;;;;;;5029498;28;20025;-75
2023/07/23 02:17:38;;;;;;;19.23;17.80;;;21.00;99.90;;;;;;5031567;28;20025;-75
2023/07/23 02:20:06;;;;;;;20.90;19.40;;;20.90;99.90;;;;;;5031351;28;20033;-75
2023/07/23 02:22:34;;;;;;;20.90;19.60;;;20.90;99.90;;;;;;5031016;28;20064;-76
2023/07/23 02:25:00;;;;;;;23.50;21.80;;;20.80;99.90;;;;;;5031238;28;20061;-75
2023/07/23 02:27:27;;;;;;;26.70;24.88;;;20.80;99.90;;;;;;5030681;28;20482;-75
2023/07/23 02:29:53;;;;;;;30.33;28.60;;;20.70;99.90;;;;;;5031270;28;20040;-75
2023/07/23 02:32:19;;;;;;;28.00;26.40;;;20.80;99.90;;;;;;5030756;28;20091;-75
2023/07/23 02:34:46;;;;;;;29.85;28.10;;;20.80;99.90;;;;;;5031552;28;20037;-75
2023/07/23 02:37:12;;;;;;;30.92;28.90;;;20.90;99.90;;;;;;5031550;28;20029;-75
2023/07/23 02:39:38;;;;;;;32.30;30.13;;;20.80;99.90;;;;;;5032524;28;20037;-75
2023/07/23 02:42:04;;;;;;;29.20;27.38;;;20.70;99.90;;;;;;5031848;28;20033;-74
2023/07/23 02:44:30;;;;;;;25.63;23.75;;;20.70;99.90;;;;;;5032304;28;20033;-75
2023/07/23 02:46:56;;;;;;;25.08;23.48;;;20.70;99.90;;;;;;5031464;28;20042;-74
2023/07/23 02:49:22;;;;;;;27.10;25.15;;;20.70;99.90;;;;;;5030893;28;20034;-75
2023/07/23 02:51:49;;;;;;;19.05;17.80;;;20.70;99.90;;;;;;5032049;28;20052;-74
2023/07/23 02:54:15;;;;;;;18.52;17.27;;;20.70;99.90;;;;;;5032113;28;20030;-75
2023/07/23 02:56:41;;;;;;;18.38;17.08;;;20.80;99.90;;;;;;5031722;28;20037;-74
2023/07/23 02:59:07;;;;;;;18.27;16.55;;;20.70;99.90;;;;;;5032415;28;20037;-75
2023/07/23 03:01:33;;;;;;;16.98;15.55;;;20.60;99.90;;;;;;5031488;28;20041;-75
2023/07/23 03:03:59;;;;;;;17.80;16.27;;;20.60;99.90;;;;;;5032288;28;20375;-75
2023/07/23 03:06:26;;;;;;;15.88;14.77;;;20.60;99.90;;;;;;5031975;28;20026;-75
2023/07/23 03:08:52;;;;;;;17.92;16.48;;;20.60;99.90;;;;;;5032289;28;20042;-74
2023/07/23 03:11:18;;;;;;;19.10;17.90;;;20.60;99.90;;;;;;5031363;28;20026;-75
2023/07/23 03:13:44;;;;;;;20.27;18.48;;;20.60;99.90;;;;;;5032066;28;20037;-74
2023/07/23 03:16:10;;;;;;;22.08;20.48;;;20.60;99.90;;;;;;5031684;28;20475;-74
2023/07/23 03:18:36;;;;;;;22.10;20.45;;;20.60;99.90;;;;;;5034230;28;20030;-74
2023/07/23 03:21:02;;;;;;;23.20;21.67;;;20.60;99.90;;;;;;5034536;28;20057;-74
2023/07/23 03:23:28;;;;;;;21.83;20.25;;;20.70;99.90;;;;;;5036021;28;20029;-75
2023/07/23 03:25:54;;;;;;;26.50;24.42;;;20.80;99.90;;;;;;5035417;28;20041;-76
2023/07/23 03:28:20;;;;;;;29.40;27.45;;;20.70;99.90;;;;;;5036237;28;20046;-75
2023/07/23 03:30:47;;;;;;;28.92;27.08;;;20.70;99.90;;;;;;5035336;28;20034;-74
2023/07/23 03:33:13;;;;;;;28.85;26.95;;;20.70;99.90;;;;;;5035594;28;20034;-75
2023/07/23 03:35:39;;;;;;;45.42;42.47;;;20.70;99.90;;;;;;5035411;28;20037;-74
2023/07/23 03:38:05;;;;;;;50.63;47.70;;;20.70;99.90;;;;;;5035622;28;20033;-74
2023/07/23 03:40:31;;;;;;;49.00;45.88;;;20.70;99.90;;;;;;5033504;28;20475;-75
2023/07/23 03:42:57;;;;;;;56.85;53.70;;;20.70;99.90;;;;;;5034470;28;20033;-74
2023/07/23 03:45:23;;;;;;;57.63;54.35;;;20.70;99.90;;;;;;5034576;28;20592;-75
2023/07/23 03:47:49;;;;;;;69.18;65.30;;;20.60;99.90;;;;;;5034233;28;20050;-75
2023/07/23 03:50:15;;;;;;;65.70;61.78;;;20.60;99.90;;;;;;5035078;28;20042;-74
2023/07/23 03:52:42;;;;;;;67.93;63.88;;;20.60;99.90;;;;;;5035192;28;20568;-74
2023/07/23 03:55:08;;;;;;;73.82;69.65;;;20.60;99.90;;;;;;5034878;28;20032;-76
2023/07/23 03:57:34;;;;;;;73.63;69.63;;;20.60;99.90;;;;;;5015568;28;20042;-75
2023/07/23 04:00:00;;;;;;;75.13;70.65;;;20.60;99.90;;;;;;5015349;28;20480;-75
2023/07/23 04:02:26;;;;;;;75.93;71.53;;;20.70;99.90;;;;;;5033640;28;20041;-74
2023/07/23 04:04:52;;;;;;;62.33;58.90;;;20.60;99.90;;;;;;5035641;28;20474;-75
2023/07/23 04:07:18;;;;;;;72.85;68.85;;;20.50;99.90;;;;;;5034927;28;20049;-75
2023/07/23 04:09:44;;;;;;;55.75;52.30;;;20.50;99.90;;;;;;5034513;28;20516;-75
2023/07/23 04:12:13;;;;;;;59.28;55.80;;;20.50;99.90;;;;;;5035335;28;20038;-75
2023/07/23 04:14:43;;;;;;;58.72;55.47;;;20.40;99.90;;;;;;5034848;28;20501;-75
2023/07/23 04:17:10;;;;;;;55.58;51.88;;;20.50;99.90;;;;;;5033996;28;20037;-75
2023/07/23 04:19:36;;;;;;;51.55;48.38;;;20.40;99.90;;;;;;5034872;28;20025;-74
2023/07/23 04:22:03;;;;;;;54.80;51.35;;;20.50;99.90;;;;;;5034326;28;20605;-75
2023/07/23 04:24:29;;;;;;;43.33;40.70;;;20.50;99.90;;;;;;5034231;28;20042;-76
2023/07/23 04:26:56;;;;;;;47.67;44.65;;;20.50;99.90;;;;;;5034999;28;20037;-75
2023/07/23 04:29:22;;;;;;;45.88;43.00;;;20.50;99.90;;;;;;5034240;28;20041;-75
2023/07/23 04:31:48;;;;;;;43.35;40.67;;;20.50;99.90;;;;;;5033935;28;20026;-74
2023/07/23 04:34:14;;;;;;;41.70;39.13;;;20.50;99.90;;;;;;5034693;28;20041;-74
2023/07/23 04:36:40;;;;;;;38.28;35.40;;;20.50;99.90;;;;;;5034061;28;20030;-74
2023/07/23 04:39:06;;;;;;;36.30;34.00;;;20.50;99.90;;;;;;5034186;28;20046;-74
2023/07/23 04:41:32;;;;;;;39.72;37.17;;;20.50;99.90;;;;;;5034283;28;20026;-75
2023/07/23 04:43:58;;;;;;;40.40;37.85;;;20.40;99.90;;;;;;5034351;28;20029;-75
2023/07/23 04:46:24;;;;;;;41.00;38.05;;;20.40;99.90;;;;;;5033499;28;20041;-75
2023/07/23 04:48:50;;;;;;;39.38;36.90;;;20.40;99.90;;;;;;5034341;28;20052;-75
2023/07/23 04:51:17;;;;;;;41.80;39.35;;;20.50;99.90;;;;;;5034146;28;20072;-75
2023/07/23 04:53:43;;;;;;;42.80;40.15;;;20.40;99.90;;;;;;5033759;28;20030;-74
2023/07/23 04:56:09;;;;;;;45.05;42.20;;;20.40;99.90;;;;;;5033870;28;20029;-74
2023/07/23 04:58:35;;;;;;;37.38;34.70;;;20.40;99.90;;;;;;5034048;28;20387;-75
2023/07/23 05:01:08;;;;;;;34.47;32.15;;;20.50;99.90;;;;;;5033329;28;20033;-75
2023/07/23 05:03:34;;;;;;;39.55;36.95;;;20.50;99.90;;;;;;5033907;28;20029;-75
2023/07/23 05:06:02;;;;;;;39.60;37.10;;;20.50;99.90;;;;;;5033802;28;20029;-75
2023/07/23 05:08:28;;;;;;;28.25;26.13;;;20.40;99.90;;;;;;5031749;28;20049;-75
2023/07/23 05:11:01;;;;;;;22.13;20.10;;;20.40;99.90;;;;;;5033717;28;20666;-75
2023/07/23 05:13:28;;;;;;;20.02;18.27;;;20.40;99.90;;;;;;5032770;28;20044;-75
2023/07/23 05:15:54;;;;;;;16.80;15.50;;;20.50;99.90;;;;;;5033073;28;20037;-75
2023/07/23 05:18:22;;;;;;;17.27;15.63;;;20.50;99.90;;;;;;5033812;28;20040;-75
2023/07/23 05:20:48;;;;;;;17.25;15.52;;;20.50;99.90;;;;;;5032364;28;20030;-75
2023/07/23 05:23:14;;;;;;;16.38;14.77;;;20.50;99.90;;;;;;5033261;28;20485;-74
2023/07/23 05:25:42;;;;;;;17.40;15.52;;;20.50;99.90;;;;;;5033430;28;20041;-75
2023/07/23 05:28:08;;;;;;;16.92;15.43;;;20.40;99.90;;;;;;5032219;28;20044;-75
2023/07/23 05:30:34;;;;;;;17.35;15.73;;;20.50;99.90;;;;;;5032713;28;20478;-74
2023/07/23 05:33:00;;;;;;;16.80;15.05;;;20.40;99.90;;;;;;5033615;28;20030;-75
2023/07/23 05:35:26;;;;;;;17.55;15.35;;;20.40;99.90;;;;;;5033119;28;20549;-75
2023/07/23 05:37:52;;;;;;;15.57;14.23;;;20.40;99.90;;;;;;5032868;28;20041;-75
2023/07/23 05:40:18;;;;;;;17.10;15.48;;;20.40;99.90;;;;;;5032335;28;20029;-75
2023/07/23 05:42:44;;;;;;;16.98;15.38;;;20.50;99.90;;;;;;5033176;28;20033;-74
2023/07/23 05:45:10;;;;;;;17.25;15.65;;;20.50;99.90;;;;;;5032530;28;20041;-75
2023/07/23 05:47:36;;;;;;;17.67;15.95;;;20.50;99.90;;;;;;5013592;28;20086;-74
2023/07/23 05:50:03;;;;;;;17.35;15.77;;;20.50;99.90;;;;;;5030108;28;20053;-75
2023/07/23 05:52:29;;;;;;;17.88;15.98;;;20.60;99.90;;;;;;5032479;28;20037;-75
2023/07/23 05:54:55;;;;;;;17.48;15.80;;;20.60;99.90;;;;;;5033067;28;20052;-75
2023/07/23 05:57:21;;;;;;;18.40;16.58;;;20.60;99.90;;;;;;5032641;28;20030;-74
2023/07/23 05:59:47;;;;;;;17.90;16.20;;;20.60;99.90;;;;;;5032997;28;20029;-75
2023/07/23 06:02:13;;;;;;;18.35;16.33;;;20.70;99.90;;;;;;5032383;28;20032;-75
2023/07/23 06:04:39;;;;;;;19.15;17.35;;;20.70;99.90;;;;;;5031609;28;20038;-76
2023/07/23 06:07:06;;;;;;;20.23;18.40;;;20.70;99.90;;;;;;5032728;28;20040;-74
2023/07/23 06:09:32;;;;;;;21.42;19.73;;;20.70;99.90;;;;;;5032895;28;20033;-74
2023/07/23 06:11:58;;;;;;;21.95;20.08;;;20.80;99.90;;;;;;5032974;28;20038;-75
2023/07/23 06:14:24;;;;;;;22.30;20.27;;;20.80;99.90;;;;;;5032651;28;20030;-74
2023/07/23 06:16:50;;;;;;;22.02;20.23;;;20.80;99.90;;;;;;5031973;28;20044;-75
2023/07/23 06:19:16;;;;;;;22.75;20.60;;;20.80;99.90;;;;;;5032310;28;20033;-74
2023/07/23 06:21:43;;;;;;;23.67;21.55;;;20.90;99.90;;;;;;5032569;28;20048;-72
2023/07/23 06:24:09;;;;;;;22.05;20.33;;;20.90;99.90;;;;;;5032692;28;20386;-74
2023/07/23 06:26:35;;;;;;;21.70;19.85;;;20.80;99.90;;;;;;5031127;28;20050;-74
2023/07/23 06:29:01;;;;;;;24.27;22.38;;;20.90;99.90;;;;;;5032883;28;20056;-74
2023/07/23 06:31:27;;;;;;;22.45;20.45;;;20.90;99.90;;;;;;5031963;28;20037;-73
2023/07/23 06:33:53;;;;;;;22.10;20.00;;;20.80;99.90;;;;;;5032091;28;20383;-74
2023/07/23 06:36:19;;;;;;;22.50;20.70;;;20.80;99.90;;;;;;5032051;28;20025;-74
2023/07/23 06:38:46;;;;;;;24.48;22.38;;;20.80;99.90;;;;;;5032293;28;20391;-75
2023/07/23 06:41:12;;;;;;;21.27;19.17;;;20.80;99.90;;;;;;5032655;28;20041;-74
2023/07/23 06:43:38;;;;;;;22.60;20.52;;;20.70;99.90;;;;;;5032768;28;20380;-74
2023/07/23 06:46:04;;;;;;;22.98;20.85;;;20.90;99.90;;;;;;5031523;28;20045;-75
2023/07/23 06:48:30;;;;;;;22.58;20.58;;;21.00;99.90;;;;;;5032029;28;20033;-74
2023/07/23 06:50:57;;;;;;;23.48;21.48;;;21.00;99.90;;;;;;5031930;28;20125;-74
2023/07/23 06:53:23;;;;;;;28.23;25.63;;;21.20;99.90;;;;;;5035677;28;20025;-74
2023/07/23 06:56:02;;;;;;;27.38;24.75;;;21.30;99.90;;;;;;5036156;28;20029;-74
2023/07/23 06:58:29;;;;;;;30.60;28.35;;;21.30;99.90;;;;;;5035148;28;20029;-75
2023/07/23 07:00:55;;;;;;;29.80;27.45;;;21.30;99.90;;;;;;5035650;28;20037;-74
2023/07/23 07:03:21;;;;;;;28.90;26.58;;;21.30;99.90;;;;;;5034678;28;20033;-74
2023/07/23 07:05:48;;;;;;;31.80;29.25;;;21.30;99.90;;;;;;5034759;28;20041;-74
2023/07/23 07:08:14;;;;;;;32.60;30.10;;;21.40;99.90;;;;;;5036237;28;20053;-75
2023/07/23 07:10:40;;;;;;;33.13;30.52;;;21.40;99.90;;;;;;5035823;28;20458;-75
2023/07/23 07:13:06;;;;;;;30.17;28.08;;;21.40;99.90;;;;;;5036093;28;20034;-75
2023/07/23 07:15:32;;;;;;;28.55;25.70;;;21.30;99.90;;;;;;5035511;28;20040;-74
2023/07/23 07:17:58;;;;;;;26.20;24.00;;;21.30;99.90;;;;;;5035643;28;20033;-74
2023/07/23 07:20:24;;;;;;;26.05;24.10;;;21.30;99.90;;;;;;5035673;28;20025;-75
2023/07/23 07:22:50;;;;;;;24.15;21.95;;;21.40;99.90;;;;;;5036012;28;20505;-74
2023/07/23 07:25:16;;;;;;;25.48;23.42;;;21.40;99.90;;;;;;5035588;28;20034;-75
2023/07/23 07:27:42;;;;;;;24.70;22.67;;;21.40;99.90;;;;;;5035912;28;20394;-74
2023/07/23 07:30:09;;;;;;;26.40;24.30;;;21.60;99.90;;;;;;5035364;28;20041;-74
2023/07/23 07:32:35;;;;;;;31.98;29.33;;;21.60;99.90;;;;;;5035303;28;20033;-75
2023/07/23 07:35:02;;;;;;;29.52;27.08;;;21.60;99.90;;;;;;5035697;28;20025;-75
2023/07/23 07:37:28;;;;;;;34.35;31.55;;;21.60;99.90;;;;;;5035490;28;20025;-75
2023/07/23 07:39:54;;;;;;;32.80;30.00;;;21.70;99.90;;;;;;5035075;28;20502;-75
2023/07/23 07:42:20;;;;;;;32.88;30.17;;;21.70;99.90;;;;;;5035387;28;20033;-75
2023/07/23 07:44:46;;;;;;;37.35;34.08;;;21.70;99.90;;;;;;5035389;28;20489;-74
2023/07/23 07:47:12;;;;;;;34.40;31.60;;;21.70;99.90;;;;;;5034492;28;20042;-76
2023/07/23 07:49:38;;;;;;;34.22;31.40;;;21.70;99.90;;;;;;5035437;28;20420;-75
2023/07/23 07:52:05;;;;;;;34.38;31.80;;;21.80;99.90;;;;;;5035076;28;20056;-75
2023/07/23 07:54:34;;;;;;;38.22;35.15;;;21.80;99.90;;;;;;5034207;28;20363;-75
2023/07/23 07:57:01;;;;;;;34.38;32.08;;;21.80;99.90;;;;;;5034943;28;20033;-75
2023/07/23 07:59:28;;;;;;;36.17;33.63;;;21.80;99.90;;;;;;5035336;28;20029;-74
2023/07/23 08:01:54;;;;;;;33.03;30.52;;;21.80;99.90;;;;;;5032872;28;20033;-75
2023/07/23 08:04:21;;;;;;;33.63;31.23;;;21.80;99.90;;;;;;5034602;28;20025;-75
2023/07/23 08:06:47;;;;;;;41.00;37.83;;;21.90;99.90;;;;;;5034430;28;20056;-75
2023/07/23 08:09:13;;;;;;;38.53;35.75;;;21.90;99.90;;;;;;5033724;28;20037;-75
2023/07/23 08:11:39;;;;;;;31.30;28.67;;;21.90;99.90;;;;;;5033670;28;20034;-75
2023/07/23 08:14:06;;;;;;;28.92;26.42;;;21.90;99.90;;;;;;5033669;28;20030;-74
2023/07/23 08:16:33;;;;;;;30.08;27.67;;;21.90;99.90;;;;;;5032623;28;20037;-74
2023/07/23 08:18:59;;;;;;;33.50;30.85;;;21.90;99.90;;;;;;5034928;28;20030;-75
2023/07/23 08:21:25;;;;;;;29.38;26.77;;;22.00;99.90;;;;;;5034489;28;20036;-75
2023/07/23 08:23:52;;;;;;;25.80;23.92;;;21.90;99.90;;;;;;5034650;28;20048;-75
2023/07/23 08:26:19;;;;;;;31.60;29.23;;;21.90;99.90;;;;;;5034544;28;20379;-74
2023/07/23 08:28:51;;;;;;;30.40;27.80;;;22.00;99.90;;;;;;5034706;28;20049;-74
2023/07/23 08:31:21;;;;;;;31.17;28.63;;;21.90;99.90;;;;;;5033761;28;20034;-74
2023/07/23 08:33:47;;;;;;;27.23;25.13;;;22.00;99.90;;;;;;5033016;28;20386;-74
2023/07/23 08:36:14;;;;;;;32.15;29.95;;;22.10;99.90;;;;;;5033902;28;20046;-74
2023/07/23 08:38:40;;;;;;;32.58;30.17;;;22.10;99.90;;;;;;5034535;28;20387;-75
2023/07/23 08:41:30;;;;;;;30.83;28.42;;;22.10;99.90;;;;;;5033093;28;20034;-75
2023/07/23 08:44:15;;;;;;;30.90;28.77;;;22.00;99.90;;;;;;4992652;28;20046;-74
2023/07/23 08:46:45;;;;;;;30.20;28.27;;;22.00;99.90;;;;;;4991662;28;20523;-74
2023/07/23 08:49:11;;;;;;;32.05;29.98;;;22.10;99.90;;;;;;4992215;28;20450;-75
2023/07/23 08:51:43;;;;;;;30.10;27.77;;;22.10;99.90;;;;;;4991878;28;20066;-77
2023/07/23 08:54:10;;;;;;;31.45;29.23;;;22.20;99.90;;;;;;4992577;28;20046;-74
2023/07/23 08:56:37;;;;;;;33.00;30.33;;;22.20;99.90;;;;;;4992357;28;20432;-75
2023/07/23 08:59:04;;;;;;;31.65;29.55;;;22.10;99.90;;;;;;4976333;28;20165;-75
2023/07/23 09:01:34;;;;;;;35.13;32.40;;;22.10;99.90;;;;;;4980034;28;20039;-74
2023/07/23 09:04:01;;;;;;;33.00;30.70;;;22.10;99.90;;;;;;4957232;28;20038;-75
2023/07/23 09:06:30;;;;;;;31.17;29.00;;;22.10;99.90;;;;;;4956937;28;20051;-75
2023/07/23 09:09:03;;;;;;;33.90;31.30;;;22.20;99.90;;;;;;4956551;28;20061;-74
2023/07/23 09:11:29;;;;;;;34.72;32.08;;;22.30;99.90;;;;;;4973002;28;20030;-75
2023/07/23 09:14:00;;;;;;;33.92;31.83;;;22.40;99.90;;;;;;4972150;28;20038;-75
2023/07/23 09:16:26;;;;;;;35.28;33.08;;;22.50;99.90;;;;;;4955006;28;20071;-74
2023/07/23 09:18:52;;;;;;;39.25;36.67;;;22.60;99.90;;;;;;4956807;28;20130;-75
2023/07/23 09:21:23;;;;;;;41.85;39.33;;;22.60;99.90;;;;;;4996495;28;20050;-75
2023/07/23 09:23:53;;;;;;;43.28;40.67;;;22.60;99.90;;;;;;5014000;28;20502;-75
2023/07/23 09:26:24;;;;;;;44.63;41.87;;;22.60;99.90;;;;;;5012352;28;20053;-74
2023/07/23 09:28:51;;;;;;;;;;;22.70;99.90;;;;;;5014162;28;20798;-74
2023/07/23 09:31:22;;;;;;;37.17;34.88;;;22.70;99.90;;;;;;5013176;28;19924;-74
2023/07/23 09:33:48;;;;;;;39.60;37.20;;;22.70;99.90;;;;;;5013628;28;20037;-74
2023/07/23 09:36:14;;;;;;;36.33;33.95;;;22.80;99.90;;;;;;5012281;28;20030;-74
2023/07/23 09:38:45;;;;;;;40.28;37.85;;;22.80;99.90;;;;;;5013582;28;20494;-75
2023/07/23 09:41:11;;;;;;;41.15;38.75;;;22.90;99.90;;;;;;5013576;28;20403;-74
2023/07/23 09:43:38;;;;;;;41.78;39.20;;;22.90;99.90;;;;;;5012152;28;20034;-75
2023/07/23 09:46:04;;;;;;;47.88;44.92;;;23.00;99.90;;;;;;5011565;28;20030;-74
2023/07/23 09:48:30;;;;;;;45.28;42.50;;;23.00;99.90;;;;;;5012246;28;20080;-74
2023/07/23 09:51:00;;;;;;;46.65;43.63;;;23.00;99.90;;;;;;5011907;28;20046;-74
2023/07/23 09:53:28;;;;;;;44.67;41.88;;;23.00;99.90;;;;;;5012123;28;20029;-74
2023/07/23 09:55:54;;;;;;;43.08;40.63;;;23.00;99.90;;;;;;5012888;28;20045;-74
2023/07/23 09:58:21;;;;;;;46.80;43.88;;;23.10;99.90;;;;;;5011945;28;20034;-74
2023/07/23 10:00:47;;;;;;;42.80;40.28;;;23.00;99.90;;;;;;5010938;28;20045;-75
2023/07/23 10:03:16;;;;;;;47.40;44.60;;;23.00;99.90;;;;;;5012072;28;20029;-74
2023/07/23 10:05:42;;;;;;;43.50;40.60;;;22.90;99.90;;;;;;5012891;28;20537;-75
2023/07/23 10:08:08;;;;;;;43.78;40.92;;;22.80;99.90;;;;;;5011908;28;20034;-74
2023/07/23 10:10:34;;;;;;;39.88;37.25;;;22.80;99.90;;;;;;5011832;28;20494;-74
2023/07/23 10:13:00;;;;;;;43.90;41.22;;;22.70;99.90;;;;;;5011661;28;20042;-74
2023/07/23 10:15:27;;;;;;;43.33;40.42;;;22.70;99.90;;;;;;5012326;28;20117;-74
2023/07/23 10:17:54;;;;;;;39.92;37.38;;;22.70;99.90;;;;;;5011856;28;20056;-74
2023/07/23 10:20:20;;;;;;;38.53;36.30;;;22.70;99.90;;;;;;5012854;28;20021;-73
2023/07/23 10:22:47;;;;;;;40.30;37.65;;;22.70;99.90;;;;;;5011810;28;20031;-74
2023/07/23 10:25:32;;;;;;;38.42;35.88;;;22.70;99.90;;;;;;5011447;28;20029;-74
2023/07/23 10:28:03;;;;;;;40.60;38.17;;;22.80;99.90;;;;;;5012300;28;20411;-75
2023/07/23 10:30:29;;;;;;;37.58;35.00;;;22.80;99.90;;;;;;5012133;28;20030;-74
2023/07/23 10:33:04;;;;;;;42.38;39.65;;;22.80;99.90;;;;;;5012755;28;20030;-74
2023/07/23 10:35:52;;;;;;;43.08;40.30;;;22.80;99.90;;;;;;5012765;28;20045;-74
2023/07/23 10:38:39;;;;;;;42.15;39.13;;;22.70;99.90;;;;;;4993351;28;20046;-75
2023/07/23 10:41:05;;;;;;;43.13;40.28;;;22.80;99.90;;;;;;4998908;28;20391;-75
2023/07/23 10:43:40;;;;;;;39.42;36.78;;;22.80;99.90;;;;;;5012748;28;20049;-74
2023/07/23 10:46:11;;;;;;;41.13;38.55;;;22.80;99.90;;;;;;5012158;28;20039;-74
2023/07/23 10:48:49;;;;;;;39.72;37.40;;;23.00;99.90;;;;;;5011336;28;20038;-74
2023/07/23 10:51:19;;;;;;;41.28;38.92;;;23.10;99.90;;;;;;5010602;28;20054;-74
2023/07/23 10:54:07;;;;;;;50.58;47.90;;;23.20;99.90;;;;;;5012311;28;20030;-74
2023/07/23 10:56:40;;;;;;;57.80;54.30;;;23.40;99.90;;;;;;5012129;28;20045;-74
2023/07/23 10:59:08;;;;;;;54.03;50.72;;;23.40;99.90;;;;;;5012542;28;20037;-75
2023/07/23 11:01:35;;;;;;;50.85;47.83;;;23.40;99.90;;;;;;5011608;28;20482;-75
2023/07/23 11:04:07;;;;;;;65.20;61.55;;;23.30;99.90;;;;;;5011447;28;20398;-75
2023/07/23 11:06:33;;;;;;;66.75;63.25;;;23.20;99.90;;;;;;5012050;28;20124;-75
2023/07/23 11:09:10;;;;;;;66.45;62.78;;;23.30;99.90;;;;;;5012645;28;20046;-74
2023/07/23 11:11:40;;;;;;;71.40;67.25;;;23.40;99.90;;;;;;5012010;28;20038;-76
2023/07/23 11:14:28;;;;;;;56.60;53.20;;;23.50;99.90;;;;;;5012488;28;20403;-74
2023/07/23 11:16:59;;;;;;;65.03;61.33;;;23.50;99.90;;;;;;5011760;28;20534;-75
2023/07/23 11:19:27;;;;;;;68.75;64.80;;;23.60;99.90;;;;;;5012396;28;20026;-75
2023/07/23 11:21:56;;;;;;;70.85;66.93;;;23.60;99.90;;;;;;5012266;28;20034;-74
2023/07/23 11:24:25;;;;;;;69.70;65.90;;;23.60;99.90;;;;;;5012033;28;20034;-74
2023/07/23 11:26:52;;;;;;;69.35;65.30;;;23.60;99.90;;;;;;5010932;28;20037;-75
2023/07/23 11:29:18;;;;;;;65.22;61.63;;;23.60;99.90;;;;;;5012647;28;20481;-74
2023/07/23 11:31:45;;;;;;;61.88;58.20;;;23.60;99.90;;;;;;5011616;28;20045;-73
2023/07/23 11:34:12;;;;;;;75.75;71.32;;;23.60;99.90;;;;;;5010878;28;20379;-74
2023/07/23 11:36:38;;;;;;;70.28;66.53;;;23.60;99.90;;;;;;5010567;28;20030;-75
2023/07/23 11:39:05;;;;;;;85.15;80.43;;;23.70;99.90;;;;;;5012957;28;20037;-73
2023/07/23 11:41:37;;;;;;;75.60;71.40;;;23.80;99.90;;;;;;5015591;28;20038;-75
2023/07/23 11:44:06;;;;;;;85.60;81.20;;;24.00;99.90;;;;;;5015738;28;20021;-74
2023/07/23 11:46:36;;;;;;;88.13;83.53;;;24.10;99.90;;;;;;5015181;28;20030;-75
2023/07/23 11:49:07;;;;;;;76.72;72.45;;;24.30;99.90;;;;;;5015690;28;20037;-75
2023/07/23 11:51:33;;;;;;;75.07;71.18;;;24.40;99.90;;;;;;5015393;28;20042;-74
2023/07/23 11:54:25;;;;;;;74.97;70.95;;;24.50;99.90;;;;;;5014101;28;20101;-75
2023/07/23 11:56:51;;;;;;;87.25;82.75;;;24.60;99.90;;;;;;5014117;28;20046;-75
2023/07/23 11:59:18;;;;;;;67.32;63.50;;;24.60;99.90;;;;;;5015613;28;20463;-75
2023/07/23 12:01:44;;;;;;;71.85;68.00;;;24.60;99.90;;;;;;5013579;28;20049;-74
2023/07/23 12:04:10;;;;;;;67.05;63.58;;;24.60;99.90;;;;;;5015438;28;20029;-76
2023/07/23 12:06:37;;;;;;;75.85;71.65;;;24.60;99.90;;;;;;5015251;28;20391;-74
2023/07/23 12:09:10;;;;;;;82.70;78.38;;;24.60;99.90;;;;;;5015536;28;20491;-73
2023/07/23 12:11:37;;;;;;;72.10;67.90;;;24.50;99.90;;;;;;5014216;28;20383;-76
2023/07/23 12:14:04;;;;;;;88.18;83.70;;;24.60;99.90;;;;;;5014136;28;20026;-75
2023/07/23 12:16:37;;;;;;;95.55;90.55;;;24.50;99.90;;;;;;5014763;28;20034;-74
2023/07/23 12:19:08;;;;;;;90.85;86.22;;;24.50;99.90;;;;;;5015485;28;20489;-72
2023/07/23 12:21:35;;;;;;;98.45;93.38;;;24.60;99.90;;;;;;5015090;28;20484;-74
2023/07/23 12:24:15;;;;;;;95.32;90.55;;;24.60;99.90;;;;;;5014618;28;20034;-74
2023/07/23 12:26:42;;;;;;;97.97;92.85;;;24.60;99.90;;;;;;5013681;28;20033;-75
2023/07/23 12:29:09;;;;;;;91.32;86.78;;;24.60;99.90;;;;;;5015030;28;20030;-75